Time;durP1;ratioP1;P1;durP2;ratioP2;P2;SDS_P1;SDS_P2;PMS_P1;PMS_P2;Temp;Humidity;BMP_temperature;BMP_pressure;BME280_temperature;BME280_humidity;BME280_pressure;Samples;Min_cycle;Max_cycle;Signal;HPM_P1;HPM_P2
2022/11/07 00:01:26;;;;;;;2.30;1.60;;;;;;;8.70;100.00;153594.28;5073626;28;20457;-75
2022/11/07 00:04:12;;;;;;;1.53;1.20;;;;;;;8.66;100.00;153582.66;5075382;28;20488;-75
2022/11/07 00:06:58;;;;;;;2.17;1.30;;;;;;;8.71;100.00;153595.56;5072859;28;20449;-76
2022/11/07 00:09:43;;;;;;;2.20;1.77;;;;;;;8.75;100.00;153605.91;5072686;28;20441;-76
2022/11/07 00:12:30;;;;;;;2.70;1.30;;;;;;;8.75;100.00;153607.19;5055591;28;20807;-75
2022/11/07 00:15:15;;;;;;;1.50;1.20;;;;;;;8.75;100.00;153605.91;5058659;28;20460;-76
2022/11/07 00:18:00;;;;;;;1.97;1.50;;;;;;;8.81;100.00;153622.72;5075232;28;20997;-76
2022/11/07 00:20:46;;;;;;;1.40;1.27;;;;;;;8.79;100.00;153616.25;5070707;28;20429;-76
2022/11/07 00:23:31;;;;;;;2.03;1.23;;;;;;;8.79;100.00;153617.50;5075380;28;20768;-76
2022/11/07 00:26:16;;;;;;;1.90;1.50;;;;;;;8.76;100.00;153609.81;5075487;28;20429;-76
2022/11/07 00:29:04;;;;;;;1.63;1.10;;;;;;;8.78;100.00;153614.97;5073656;28;20499;-76
2022/11/07 00:31:49;;;;;;;1.60;1.40;;;;;;;8.78;100.00;153613.66;5074757;28;20464;-75
2022/11/07 00:34:34;;;;;;;2.20;1.30;;;;;;;8.75;100.00;153607.19;5074923;28;20402;-75
2022/11/07 00:37:19;;;;;;;1.43;1.20;;;;;;;8.75;100.00;153605.91;5069274;28;20453;-76
2022/11/07 00:40:06;;;;;;;1.93;1.37;;;;;;;8.73;100.00;153600.72;5075044;28;20456;-75
2022/11/07 00:42:52;;;;;;;1.70;1.20;;;;;;;8.69;100.00;153591.66;5074492;28;20432;-76
2022/11/07 00:45:38;;;;;;;1.70;1.13;;;;;;;8.68;100.00;153589.13;5061047;28;20495;-76
2022/11/07 00:48:24;;;;;;;1.50;1.10;;;;;;;8.73;100.00;153602.03;5073968;28;20485;-76
2022/11/07 00:51:12;;;;;;;1.73;1.17;;;;;;;8.71;100.00;153595.56;5074717;28;20429;-76
2022/11/07 00:53:57;;;;;;;1.77;1.23;;;;;;;8.70;100.00;153594.28;5074243;28;20845;-76
2022/11/07 00:56:42;;;;;;;2.00;1.10;;;;;;;8.69;100.00;153590.38;5071504;28;20433;-76
2022/11/07 00:59:28;;;;;;;1.70;1.30;;;;;;;8.76;100.00;153608.50;5074431;28;20421;-76
2022/11/07 01:02:14;;;;;;;2.17;1.33;;;;;;;8.73;100.00;153602.03;5074586;28;20437;-77
2022/11/07 01:05:11;;;;;;;1.83;1.13;;;;;;;8.77;100.00;153612.34;5056489;28;20583;-76
2022/11/07 01:07:56;;;;;;;2.17;1.50;;;;;;;8.78;100.00;153613.66;5059321;28;20827;-76
2022/11/07 01:10:41;;;;;;;2.83;1.60;;;;;;;8.78;100.00;153613.66;5054067;28;20561;-76
2022/11/07 01:13:27;;;;;;;2.40;1.20;;;;;;;8.70;100.00;153592.97;5061840;28;20464;-76
2022/11/07 01:16:12;;;;;;;1.70;1.30;;;;;;;8.73;100.00;153600.72;5062077;28;20421;-76
2022/11/07 01:18:58;;;;;;;2.63;1.40;;;;;;;8.69;100.00;153590.38;5073885;28;20515;-76
2022/11/07 01:21:44;;;;;;;1.30;1.10;;;;;;;8.65;100.00;153580.03;5061080;28;20542;-76
2022/11/07 01:24:29;;;;;;;2.00;1.20;;;;;;;8.58;100.00;153564.53;5072477;28;20436;-75
2022/11/07 01:27:15;;;;;;;2.17;1.50;;;;;;;8.63;100.00;153574.88;5073997;28;20432;-75
2022/11/07 01:30:00;;;;;;;3.63;1.57;;;;;;;8.61;100.00;153569.69;5074027;28;20762;-75
2022/11/07 01:32:46;;;;;;;1.30;1.13;;;;;;;8.62;100.00;153572.28;5072367;28;20926;-75
2022/11/07 01:35:33;;;;;;;2.30;1.57;;;;;;;8.62;100.00;153572.28;5074090;28;20448;-75
2022/11/07 01:38:19;;;;;;;2.47;1.50;;;;;;;8.66;100.00;153583.91;5074457;28;20900;-76
2022/11/07 01:41:24;;;;;;;2.33;1.40;;;;;;;8.59;100.00;153565.81;5071653;28;20817;-75
2022/11/07 01:44:52;;;;;;;2.37;1.70;;;;;;;8.56;100.00;153558.06;5073597;28;20410;-75
2022/11/07 01:47:38;;;;;;;2.60;1.30;;;;;;;8.52;100.00;153549.00;5055750;28;20451;-75
2022/11/07 01:50:24;;;;;;;1.97;1.40;;;;;;;8.46;100.00;153533.53;5067921;28;20437;-75
2022/11/07 01:53:10;;;;;;;2.23;1.47;;;;;;;8.43;100.00;153524.47;5073393;28;20511;-75
2022/11/07 01:55:55;;;;;;;2.97;1.30;;;;;;;8.43;100.00;153525.75;5057954;28;20441;-75
2022/11/07 01:58:41;;;;;;;1.77;1.50;;;;;;;8.41;100.00;153519.28;5072045;28;20457;-75
2022/11/07 02:01:26;;;;;;;1.87;1.63;;;;;;;8.37;100.00;153510.22;5053689;28;20425;-75
2022/11/07 02:04:12;;;;;;;2.43;1.33;;;;;;;8.40;100.00;153516.69;5053391;28;20407;-75
2022/11/07 02:07:01;;;;;;;2.83;1.63;;;;;;;8.37;100.00;153510.22;5061165;28;21625;-75
2022/11/07 02:09:48;;;;;;;1.80;1.50;;;;;;;8.41;100.00;153520.59;5070629;28;20576;-74
2022/11/07 02:12:34;;;;;;;2.83;1.63;;;;;;;8.44;100.00;153527.06;5073374;28;20781;-75
2022/11/07 02:15:19;;;;;;;1.73;1.50;;;;;;;8.44;100.00;153527.06;5072343;28;20470;-75
2022/11/07 02:18:05;;;;;;;3.77;1.40;;;;;;;8.43;100.00;153525.75;5072529;28;20456;-75
2022/11/07 02:20:52;;;;;;;2.10;1.57;;;;;;;8.45;100.00;153530.91;5066844;28;20521;-75
2022/11/07 02:23:42;;;;;;;2.10;1.53;;;;;;;8.53;100.00;153551.59;5055811;28;20445;-75
2022/11/07 02:26:29;;;;;;;2.30;1.70;;;;;;;8.51;100.00;153545.13;5055359;28;20955;-76
2022/11/07 02:29:14;;;;;;;2.47;1.93;;;;;;;8.55;100.00;153555.50;5072786;28;20765;-75
2022/11/07 02:32:01;;;;;;;2.10;1.57;;;;;;;8.54;100.00;153552.91;5062975;28;20548;-75
2022/11/07 02:34:55;;;;;;;2.33;1.50;;;;;;;8.60;100.00;153567.13;5061157;28;20460;-75
2022/11/07 02:37:40;;;;;;;1.80;1.60;;;;;;;8.57;100.00;153560.66;5072898;28;20460;-75
2022/11/07 02:40:26;;;;;;;1.83;1.37;;;;;;;8.58;100.00;153564.53;5053533;28;20414;-75
2022/11/07 02:43:14;;;;;;;1.60;1.23;;;;;;;8.59;100.00;153565.81;5071151;28;20449;-75
2022/11/07 02:46:02;;;;;;;2.30;1.40;;;;;;;8.61;100.00;153569.69;5070626;28;20796;-75
2022/11/07 02:48:49;;;;;;;1.67;1.23;;;;;;;8.63;100.00;153576.13;5072218;28;20443;-75
2022/11/07 02:51:34;;;;;;;2.20;1.60;;;;;;;8.65;100.00;153580.03;5056153;28;20425;-77
2022/11/07 02:54:19;;;;;;;2.80;1.70;;;;;;;8.66;100.00;153583.91;5049166;28;21118;-75
2022/11/07 02:57:05;;;;;;;2.67;1.73;;;;;;;8.72;100.00;153598.13;5050522;28;20478;-75
2022/11/07 02:59:52;;;;;;;1.67;1.57;;;;;;;8.72;100.00;153598.13;5040736;28;20425;-75
2022/11/07 03:02:37;;;;;;;2.80;1.50;;;;;;;8.77;100.00;153612.34;5051845;28;20466;-75
2022/11/07 03:05:22;;;;;;;2.60;1.67;;;;;;;8.84;100.00;153629.19;5051942;28;20407;-75
2022/11/07 03:08:07;;;;;;;2.53;1.17;;;;;;;8.88;100.00;153639.50;5037400;28;20952;-76
2022/11/07 03:10:53;;;;;;;3.50;1.80;;;;;;;8.91;100.00;153647.28;5051228;28;20454;-75
2022/11/07 03:13:38;;;;;;;1.93;1.30;;;;;;;8.95;100.00;153657.59;5051879;28;20461;-75
2022/11/07 03:16:25;;;;;;;2.23;1.60;;;;;;;8.97;100.00;153664.09;5052014;28;21173;-76
2022/11/07 03:19:10;;;;;;;1.60;1.40;;;;;;;8.98;100.00;153666.66;5051628;28;20967;-75
2022/11/07 03:21:56;;;;;;;2.23;1.57;;;;;;;8.99;100.00;153667.97;5050827;28;20557;-75
2022/11/07 03:24:41;;;;;;;10.53;1.40;;;;;;;9.02;100.00;153677.03;5052707;28;20414;-75
2022/11/07 03:27:27;;;;;;;4.30;1.60;;;;;;;9.06;100.00;153687.34;5037532;28;20484;-76
2022/11/07 03:30:12;;;;;;;2.00;1.43;;;;;;;9.03;100.00;153678.28;5036393;28;20450;-75
2022/11/07 03:32:59;;;;;;;2.63;1.67;;;;;;;9.08;100.00;153691.25;5056679;28;20782;-75
2022/11/07 03:35:44;;;;;;;2.60;1.50;;;;;;;9.10;100.00;153697.72;5056125;28;20796;-75
2022/11/07 03:38:29;;;;;;;1.67;1.40;;;;;;;9.11;100.00;153698.97;5054923;28;20454;-76
2022/11/07 03:41:16;;;;;;;2.73;1.80;;;;;;;9.18;100.00;153717.13;5054007;28;20520;-75
2022/11/07 03:44:01;;;;;;;2.13;1.43;;;;;;;9.15;100.00;153710.66;5056512;28;20742;-75
2022/11/07 03:46:47;;;;;;;3.53;1.30;;;;;;;9.15;100.00;153709.34;5055145;28;20469;-76
2022/11/07 03:49:33;;;;;;;1.90;1.50;;;;;;;9.18;100.00;153718.41;5050448;28;21154;-76
2022/11/07 03:52:18;;;;;;;1.70;1.40;;;;;;;9.20;100.00;153722.28;5055499;28;20426;-76
2022/11/07 03:55:05;;;;;;;1.80;1.30;;;;;;;9.26;100.00;153737.81;5072515;28;20825;-76
2022/11/07 03:57:50;;;;;;;2.20;1.53;;;;;;;9.32;100.00;153752.03;5045121;28;20449;-75
2022/11/07 04:00:35;;;;;;;1.77;1.50;;;;;;;9.33;100.00;153755.91;5055881;28;20539;-76
2022/11/07 04:03:20;;;;;;;2.63;1.60;;;;;;;9.29;100.00;153745.59;5056297;28;20516;-75
2022/11/07 04:06:07;;;;;;;3.40;1.13;;;;;;;9.32;100.00;153753.31;5055770;28;20449;-75
2022/11/07 04:08:52;;;;;;;1.80;1.40;;;;;;;9.32;100.00;153752.03;5054035;28;20970;-76
2022/11/07 04:17:43;;;;;;;3.67;1.23;;;;;;;9.27;100.00;153740.38;5056243;28;20445;-75
2022/11/07 04:20:29;;;;;;;2.40;1.70;;;;;;;9.29;100.00;153745.59;5055732;28;20434;-76
2022/11/07 04:23:16;;;;;;;2.13;1.30;;;;;;;9.23;100.00;153730.03;5050608;28;20456;-75
2022/11/07 04:29:04;;;;;;;3.13;1.60;;;;;;;9.16;100.00;153713.22;5054840;28;20429;-76
2022/11/07 04:31:49;;;;;;;2.77;1.20;;;;;;;9.14;100.00;153706.75;5054803;28;20968;-76
2022/11/07 04:34:35;;;;;;;2.00;1.30;;;;;;;9.09;100.00;153693.81;5039485;28;20524;-75
2022/11/07 04:37:20;;;;;;;2.50;1.70;;;;;;;9.06;100.00;153687.34;5055469;28;20430;-76
2022/11/07 04:40:08;;;;;;;2.27;1.30;;;;;;;9.09;100.00;153695.13;5042728;28;20898;-75
2022/11/07 04:42:53;;;;;;;3.57;1.43;;;;;;;9.07;100.00;153688.66;5063805;28;20458;-76
2022/11/07 04:45:39;;;;;;;3.23;1.87;;;;;;;9.02;100.00;153675.72;5055274;28;20426;-76
2022/11/07 04:48:24;;;;;;;2.37;1.40;;;;;;;8.98;100.00;153665.34;5049448;28;20439;-76
2022/11/07 04:51:13;;;;;;;2.23;1.30;;;;;;;8.97;100.00;153662.81;5049552;28;20450;-75
2022/11/07 04:53:59;;;;;;;2.50;1.50;;;;;;;8.94;100.00;153656.34;5062804;28;20480;-75
2022/11/07 04:56:45;;;;;;;3.13;1.30;;;;;;;8.92;100.00;153651.13;5074129;28;20429;-76
2022/11/07 04:59:31;;;;;;;1.97;1.33;;;;;;;8.94;100.00;153655.03;5073352;28;20452;-75
2022/11/07 05:02:16;;;;;;;1.90;1.30;;;;;;;8.94;100.00;153655.03;5072061;28;20919;-75
2022/11/07 05:07:56;;;;;;;1.67;1.30;;;;;;;8.89;100.00;153642.13;5010850;22;20616;-75
2022/11/07 05:10:41;;;;;;;1.87;1.30;;;;;;;8.86;100.00;153634.34;5027087;28;20452;-75
2022/11/07 05:13:28;;;;;;;2.20;1.57;;;;;;;8.84;100.00;153629.19;5015010;28;20866;-75
2022/11/07 05:16:15;;;;;;;1.90;1.40;;;;;;;8.83;100.00;153626.59;5013689;28;20435;-75
2022/11/07 05:19:01;;;;;;;2.37;1.83;;;;;;;8.81;100.00;153621.41;5028182;28;20579;-75
2022/11/07 05:21:46;;;;;;;3.03;2.30;;;;;;;8.78;100.00;153614.97;5013745;28;20525;-75
2022/11/07 05:24:30;;;;;;;3.20;1.80;;;;;;;8.78;100.00;153614.97;5014034;28;20758;-75
2022/11/07 05:27:17;;;;;;;2.03;1.80;;;;;;;8.72;100.00;153599.44;5025607;28;20463;-75
2022/11/07 05:30:04;;;;;;;2.17;1.70;;;;;;;8.70;100.00;153594.28;5029563;28;20461;-75
2022/11/07 05:32:49;;;;;;;2.20;1.50;;;;;;;8.68;100.00;153589.13;5014773;28;20444;-76
2022/11/07 05:35:35;;;;;;;3.13;1.37;;;;;;;8.67;100.00;153585.22;5030128;28;20458;-76
2022/11/07 05:38:20;;;;;;;4.73;2.03;;;;;;;8.70;100.00;153592.97;5031095;28;20486;-75
2022/11/07 05:41:06;;;;;;;3.20;2.00;;;;;;;8.65;100.00;153580.03;5033590;28;20435;-76
2022/11/07 05:43:51;;;;;;;2.10;1.40;;;;;;;8.63;100.00;153574.88;5032384;28;20396;-75
2022/11/07 05:46:38;;;;;;;1.90;1.43;;;;;;;8.59;100.00;153565.81;5015652;28;20887;-76
2022/11/07 05:49:23;;;;;;;1.83;1.37;;;;;;;8.59;100.00;153565.81;5031385;28;20577;-75
2022/11/07 05:52:09;;;;;;;2.33;1.57;;;;;;;8.58;100.00;153564.53;5027190;28;20677;-87
2022/11/07 05:54:54;;;;;;;2.53;1.93;;;;;;;8.60;100.00;153567.13;5027101;28;21012;-87
2022/11/07 05:57:39;;;;;;;2.70;1.80;;;;;;;8.60;100.00;153567.13;5026754;28;20442;-87
2022/11/07 06:00:25;;;;;;;1.90;1.43;;;;;;;8.62;100.00;153573.59;5013052;28;20757;-87
2022/11/07 06:03:12;;;;;;;3.17;1.47;;;;;;;8.63;100.00;153576.13;5022791;28;20450;-87
2022/11/07 06:05:58;;;;;;;2.87;1.93;;;;;;;8.62;100.00;153572.28;5028576;28;20446;-87
2022/11/07 06:08:43;;;;;;;2.60;1.43;;;;;;;8.64;100.00;153577.44;5031474;28;20498;-88
2022/11/07 06:11:29;;;;;;;3.47;1.80;;;;;;;8.64;100.00;153577.44;5034379;28;20525;-88
2022/11/07 06:14:14;;;;;;;3.00;1.40;;;;;;;8.63;100.00;153576.13;5029338;28;20566;-87
2022/11/07 06:16:59;;;;;;;1.87;1.30;;;;;;;8.66;100.00;153583.91;5026887;28;20451;-88
2022/11/07 06:19:46;;;;;;;4.47;2.40;;;;;;;8.71;100.00;153595.56;5023425;28;20579;-87
2022/11/07 06:22:31;;;;;;;5.10;3.30;;;;;;;8.70;100.00;153592.97;5028790;28;21311;-87
2022/11/07 06:25:16;;;;;;;3.80;2.67;;;;;;;8.70;100.00;153592.97;5012227;28;20427;-87
2022/11/07 06:28:03;;;;;;;2.13;1.93;;;;;;;8.68;100.00;153587.81;5030389;28;20455;-87
2022/11/07 06:30:48;;;;;;;1.90;1.70;;;;;;;8.72;100.00;153598.13;5032543;28;20404;-86
2022/11/07 06:33:34;;;;;;;2.10;1.70;;;;;;;8.69;100.00;153590.38;5027913;28;20427;-87
2022/11/07 06:36:20;;;;;;;2.70;2.33;;;;;;;8.69;100.00;153590.38;5032214;28;20506;-88
2022/11/07 06:39:06;;;;;;;2.90;1.90;;;;;;;8.70;100.00;153592.97;5031710;28;21040;-86
2022/11/07 06:41:51;;;;;;;2.47;1.93;;;;;;;8.67;100.00;153585.22;5027182;28;20788;-87
2022/11/07 06:44:36;;;;;;;2.13;1.93;;;;;;;8.74;100.00;153603.28;5030476;28;20450;-86
2022/11/07 06:47:22;;;;;;;3.40;2.40;;;;;;;8.74;100.00;153604.59;5032037;28;20430;-86
2022/11/07 06:50:08;;;;;;;3.63;2.30;;;;;;;8.82;100.00;153623.97;5030184;28;20448;-86
2022/11/07 06:52:54;;;;;;;4.03;1.90;;;;;;;8.85;100.00;153631.75;5032044;28;20431;-87
2022/11/07 06:55:40;;;;;;;3.83;2.37;;;;;;;8.87;100.00;153636.94;5011876;28;20454;-86
2022/11/07 06:58:25;;;;;;;4.23;2.33;;;;;;;8.92;100.00;153649.88;5007728;28;20910;-88
2022/11/07 07:01:12;;;;;;;3.60;2.43;;;;;;;8.92;100.00;153651.13;5028602;28;20435;-88
2022/11/07 07:03:59;;;;;;;3.10;2.10;;;;;;;8.94;100.00;153655.03;5030414;28;20431;-86
2022/11/07 07:06:44;;;;;;;3.43;2.73;;;;;;;8.97;100.00;153662.81;5028094;28;20661;-88
2022/11/07 07:09:32;;;;;;;4.70;2.83;;;;;;;8.98;100.00;153666.66;5021384;28;20443;-88
2022/11/07 07:12:17;;;;;;;6.33;4.60;;;;;;;9.02;100.00;153675.72;5027356;28;20435;-88
2022/11/07 07:15:02;;;;;;;3.20;2.90;;;;;;;9.04;100.00;153680.88;5019489;28;20599;-88
2022/11/07 07:17:48;;;;;;;3.30;2.50;;;;;;;9.06;100.00;153686.06;5015448;28;20820;-87
2022/11/07 07:20:33;;;;;;;4.20;2.40;;;;;;;9.10;100.00;153696.41;5030903;28;20450;-88
2022/11/07 07:23:19;;;;;;;4.00;2.80;;;;;;;9.21;100.00;153724.88;5031476;28;20418;-88
2022/11/07 07:26:07;;;;;;;3.70;3.27;;;;;;;9.28;100.00;153742.97;5028519;28;20462;-87
2022/11/07 07:28:53;;;;;;;4.53;3.00;;;;;;;9.35;100.00;153761.06;5031021;28;20815;-87
2022/11/07 07:31:38;;;;;;;3.23;2.93;;;;;;;9.43;100.00;153780.47;5029849;28;20446;-88
2022/11/07 07:34:23;;;;;;;4.60;2.70;;;;;;;9.45;100.00;153786.94;5026782;28;20467;-88
2022/11/07 07:37:09;;;;;;;4.17;3.30;;;;;;;9.48;100.00;153794.69;5023808;28;20459;-88
2022/11/07 07:39:54;;;;;;;3.90;3.07;;;;;;;9.59;100.00;153821.88;5030656;28;20454;-88
2022/11/07 07:42:44;;;;;;;3.67;3.20;;;;;;;9.58;100.00;153819.31;5026297;28;20579;-88
2022/11/07 07:45:30;;;;;;;6.20;3.50;;;;;;;9.59;100.00;153823.16;5007925;28;20443;-88
2022/11/07 07:48:15;;;;;;;5.43;3.40;;;;;;;9.64;100.00;153836.09;5023584;28;20486;-88
2022/11/07 07:51:00;;;;;;;4.70;4.00;;;;;;;9.67;100.00;153843.88;5011983;28;20775;-88
2022/11/07 07:53:45;;;;;;;5.53;3.70;;;;;;;9.77;100.00;153869.75;5014616;28;20590;-88
2022/11/07 07:56:31;;;;;;;3.43;2.33;;;;;;;9.82;100.00;153882.69;5011998;28;20466;-88
2022/11/07 07:59:17;;;;;;;4.20;2.53;;;;;;;9.90;100.00;153902.06;5030808;28;20434;-88
2022/11/07 08:02:02;;;;;;;8.70;3.10;;;;;;;9.99;100.00;153925.38;5031548;28;20446;-88
2022/11/07 08:04:48;;;;;;;4.33;2.97;;;;;;;10.07;100.00;153944.81;5021262;28;20506;-88
2022/11/07 08:07:33;;;;;;;5.70;3.20;;;;;;;10.14;100.00;153963.00;5011484;28;20969;-88
2022/11/07 08:10:19;;;;;;;11.80;4.10;;;;;;;10.22;100.00;153983.66;5028858;28;20486;-88
2022/11/07 08:13:04;;;;;;;5.40;3.33;;;;;;;10.25;100.00;153991.44;5029812;28;20447;-89
2022/11/07 08:15:52;;;;;;;7.30;3.43;;;;;;;10.31;100.00;154007.00;5029612;28;20455;-88
2022/11/07 08:18:38;;;;;;;3.83;2.20;;;;;;;10.36;100.00;154021.22;5031350;28;20926;-88
2022/11/07 08:21:23;;;;;;;5.80;2.90;;;;;;;10.36;100.00;154019.94;5029887;28;21036;-88
2022/11/07 08:24:09;;;;;;;4.20;2.77;;;;;;;10.35;100.00;154017.38;5016135;28;20427;-88
2022/11/07 08:26:54;;;;;;;3.40;2.50;;;;;;;10.34;100.00;154014.75;5019538;28;20600;-89
2022/11/07 08:29:41;;;;;;;5.53;2.83;;;;;;;10.34;100.00;154016.06;5033145;28;20450;-88
2022/11/07 08:32:28;;;;;;;2.60;2.40;;;;;;;10.35;100.00;154018.63;5024507;28;20801;-89
2022/11/07 08:35:14;;;;;;;3.23;2.30;;;;;;;10.38;100.00;154025.09;5019637;28;20458;-89
2022/11/07 08:37:59;;;;;;;6.80;2.33;;;;;;;10.42;100.00;154034.16;5017633;28;20491;-88
2022/11/07 08:40:45;;;;;;;5.47;2.47;;;;;;;10.47;100.00;154048.41;5018569;28;20828;-88
2022/11/07 08:43:30;;;;;;;7.77;3.30;;;;;;;10.48;100.00;154051.03;5020482;28;20451;-88
2022/11/07 08:46:15;;;;;;;3.90;2.30;;;;;;;10.50;100.00;154054.88;5032936;28;20443;-88
2022/11/07 08:49:01;;;;;;;4.90;2.80;;;;;;;10.47;100.00;154047.13;5032463;28;20807;-88
2022/11/07 08:51:47;;;;;;;4.73;2.63;;;;;;;10.52;100.00;154061.34;5034802;28;20434;-88
2022/11/07 08:54:33;;;;;;;3.50;2.57;;;;;;;10.62;100.00;154087.25;5031905;28;20450;-88
2022/11/07 08:57:18;;;;;;;3.80;2.00;;;;;;;10.59;100.00;154079.47;5017260;28;20579;-88
2022/11/07 09:00:05;;;;;;;4.10;2.27;;;;;;;10.65;100.00;154095.03;4999465;28;20452;-88
2022/11/07 09:02:50;;;;;;;5.10;2.37;;;;;;;10.66;100.00;154097.63;5030371;28;20503;-88
2022/11/07 09:05:37;;;;;;;3.77;2.33;;;;;;;10.73;100.00;154114.44;5028960;28;20763;-89
2022/11/07 09:08:22;;;;;;;2.80;2.00;;;;;;;10.78;100.00;154128.69;5033059;28;20976;-88
2022/11/07 09:11:08;;;;;;;2.77;2.33;;;;;;;10.89;100.00;154157.19;5027453;28;20795;-88
2022/11/07 09:13:54;;;;;;;4.67;2.30;;;;;;;10.97;100.00;154176.59;5022131;28;20495;-88
2022/11/07 09:16:40;;;;;;;5.17;3.23;;;;;;;11.02;100.00;154190.84;5024569;28;20475;-88
2022/11/07 09:19:27;;;;;;;4.80;2.60;;;;;;;11.11;100.00;154211.59;5031752;28;20529;-88
2022/11/07 09:22:13;;;;;;;5.60;2.40;;;;;;;11.23;100.00;154242.66;5025361;28;20467;-88
2022/11/07 09:24:59;;;;;;;3.57;2.07;;;;;;;11.26;100.00;154250.44;5027961;28;20806;-88
2022/11/07 09:27:46;;;;;;;4.10;2.07;;;;;;;11.30;100.00;154262.13;5029338;28;20502;-88
2022/11/07 09:30:31;;;;;;;5.43;2.53;;;;;;;11.38;100.00;154281.56;5028951;28;20603;-88
2022/11/07 09:33:17;;;;;;;3.17;1.90;;;;;;;11.39;100.00;154284.13;5026903;28;20440;-88
2022/11/07 09:36:04;;;;;;;3.30;1.90;;;;;;;11.44;100.00;154297.06;5016909;28;20474;-88
2022/11/07 09:38:54;;;;;;;4.70;1.83;;;;;;;11.51;100.00;154315.25;5034353;28;20412;-88
2022/11/07 09:41:48;;;;;;;2.60;1.70;;;;;;;11.56;100.00;154328.19;5026751;28;20525;-88
2022/11/07 09:44:48;;;;;;;3.40;2.00;;;;;;;11.59;100.00;154335.97;5030024;28;20451;-88
2022/11/07 09:47:37;;;;;;;2.43;1.80;;;;;;;11.63;100.00;154346.31;5029601;28;20455;-88
2022/11/07 09:50:27;;;;;;;2.10;1.50;;;;;;;11.62;100.00;154343.75;5015085;28;20458;-89
2022/11/07 09:53:16;;;;;;;3.20;2.00;;;;;;;11.65;100.00;154351.50;5028139;28;20458;-88
2022/11/07 09:56:03;;;;;;;2.53;1.80;;;;;;;11.63;100.00;154346.31;5029522;28;20610;-89
2022/11/07 09:58:53;;;;;;;5.00;1.93;;;;;;;11.68;100.00;154359.28;5033210;28;20537;-88
2022/11/07 10:01:38;;;;;;;3.53;1.70;;;;;;;11.74;100.00;154373.59;5016859;28;20800;-88
2022/11/07 10:04:23;;;;;;;4.83;1.83;;;;;;;11.80;100.00;154389.16;5031544;28;20434;-88
2022/11/07 10:07:16;;;;;;;1.87;1.40;;;;;;;11.79;100.00;154387.84;5015086;28;20488;-88
2022/11/07 10:10:08;;;;;;;4.13;1.87;;;;;;;11.77;100.00;154382.66;5014787;28;20501;-88
2022/11/07 10:13:22;;;;;;;2.40;1.30;;;;;;;11.84;100.00;154399.50;5023741;28;20440;-89
2022/11/07 10:16:12;;;;;;;3.63;1.90;;;;;;;11.87;100.00;154408.56;5029527;28;20558;-88
2022/11/07 10:19:08;;;;;;;3.73;1.77;;;;;;;11.90;100.00;154416.38;5032775;28;20806;-88
2022/11/07 10:22:03;;;;;;;3.13;1.60;;;;;;;11.84;100.00;154400.78;5020900;28;20446;-88
2022/11/07 10:25:01;;;;;;;2.57;1.60;;;;;;;11.83;100.00;154398.22;5018310;28;20460;-88
2022/11/07 10:27:51;;;;;;;3.10;1.57;;;;;;;11.86;100.00;154405.97;5014456;28;20511;-88
2022/11/07 10:30:38;;;;;;;2.47;1.73;;;;;;;11.87;100.00;154408.56;5031423;28;20800;-88
2022/11/07 10:33:32;;;;;;;2.70;1.50;;;;;;;11.94;100.00;154426.72;5032018;28;20510;-88
2022/11/07 10:36:22;;;;;;;3.63;1.90;;;;;;;12.01;100.00;154443.59;5031242;28;20479;-88
2022/11/07 10:39:14;;;;;;;3.87;2.77;;;;;;;12.04;100.00;154452.69;5023588;28;20415;-89
2022/11/07 10:42:02;;;;;;;3.93;2.00;;;;;;;12.10;100.00;154466.88;5032593;28;20906;-89
2022/11/07 10:44:48;;;;;;;4.20;1.70;;;;;;;12.19;100.00;154491.56;5028466;28;20423;-89
2022/11/07 10:47:34;;;;;;;3.83;1.50;;;;;;;12.21;100.00;154495.41;5030575;28;20475;-87
2022/11/07 10:50:22;;;;;;;5.00;1.70;;;;;;;12.30;100.00;154517.47;5017255;28;20446;-87
2022/11/07 10:53:18;;;;;;;3.33;1.53;;;;;;;12.32;100.00;154522.66;5030402;28;20448;-87
2022/11/07 10:56:09;;;;;;;4.80;2.33;;;;;;;12.42;100.00;154548.56;5028358;28;20495;-86
2022/11/07 10:59:01;;;;;;;5.53;2.57;;;;;;;12.41;100.00;154547.31;5033019;28;20933;-88
2022/11/07 11:01:50;;;;;;;3.80;2.37;;;;;;;12.48;100.00;154564.16;5011472;28;20463;-88
2022/11/07 11:04:38;;;;;;;4.37;2.70;;;;;;;12.53;100.00;154577.09;5027942;28;20434;-88
2022/11/07 11:07:25;;;;;;;2.90;2.30;;;;;;;12.54;100.00;154581.03;5031258;28;20467;-88
2022/11/07 11:10:18;;;;;;;4.70;1.80;;;;;;;12.57;99.61;154587.50;5031286;28;20594;-88
2022/11/07 11:13:03;;;;;;;3.37;2.20;;;;;;;12.57;99.41;154587.50;5026934;28;20913;-88
2022/11/07 11:15:48;;;;;;;5.70;1.50;;;;;;;12.57;99.95;154587.50;5029741;28;20447;-88
2022/11/07 11:18:34;;;;;;;2.83;1.40;;;;;;;12.59;100.00;154594.00;5015744;28;20408;-88
2022/11/07 11:21:20;;;;;;;4.40;1.40;;;;;;;12.56;100.00;154584.91;5029667;28;20656;-89
2022/11/07 11:24:13;;;;;;;3.00;1.30;;;;;;;12.48;100.00;154564.16;5025731;28;20423;-89
2022/11/07 11:27:01;;;;;;;3.77;1.40;;;;;;;12.53;100.00;154578.41;5025547;28;20770;-88
2022/11/07 11:29:53;;;;;;;2.00;1.40;;;;;;;12.54;100.00;154579.72;5004050;28;20436;-88
2022/11/07 11:32:40;;;;;;;3.93;1.33;;;;;;;12.58;100.00;154590.06;5012726;28;20436;-87
2022/11/07 11:35:33;;;;;;;2.47;1.60;;;;;;;12.68;100.00;154616.03;5011984;28;20508;-88
2022/11/07 11:38:24;;;;;;;3.87;1.60;;;;;;;12.74;100.00;154631.56;5022576;28;20455;-87
2022/11/07 11:41:16;;;;;;;4.87;1.53;;;;;;;12.81;100.00;154649.75;5032276;28;20427;-87
2022/11/07 11:44:06;;;;;;;4.43;2.03;;;;;;;12.87;100.00;154665.28;5020296;28;20436;-88
2022/11/07 11:46:57;;;;;;;3.07;1.30;;;;;;;12.82;99.95;154652.31;5018566;28;20901;-88
2022/11/07 11:49:44;;;;;;;3.43;1.10;;;;;;;12.97;100.00;154689.97;5028889;28;20428;-88
2022/11/07 11:52:30;;;;;;;3.60;1.13;;;;;;;13.02;99.29;154704.25;5013961;28;20434;-87
2022/11/07 11:55:19;;;;;;;3.83;1.50;;;;;;;13.07;98.78;154717.25;5029413;28;20465;-88
2022/11/07 11:58:13;;;;;;;1.90;1.03;;;;;;;13.09;97.52;154721.13;5033290;28;20447;-88
2022/11/07 12:01:02;;;;;;;5.23;1.80;;;;;;;13.13;96.98;154732.78;5021186;28;20431;-88
2022/11/07 12:03:58;;;;;;;2.77;1.20;;;;;;;13.22;97.70;154756.19;5034492;28;20438;-88
2022/11/07 12:06:45;;;;;;;2.10;1.30;;;;;;;13.21;95.76;154753.56;5034349;28;20771;-88
2022/11/07 12:09:37;;;;;;;1.90;1.10;;;;;;;13.21;95.86;154752.31;5036046;28;20427;-88
2022/11/07 12:12:30;;;;;;;2.87;1.50;;;;;;;13.22;96.77;154756.19;5035721;28;20426;-88
2022/11/07 12:15:39;;;;;;;1.80;1.40;;;;;;;13.33;94.01;154784.72;5033926;28;20470;-88
2022/11/07 12:18:31;;;;;;;5.63;1.47;;;;;;;13.31;94.78;154779.56;5016119;28;20395;-88
2022/11/07 12:21:30;;;;;;;5.10;1.13;;;;;;;13.36;94.88;154791.22;5027251;28;20439;-88
2022/11/07 12:24:28;;;;;;;1.60;1.10;;;;;;;13.39;95.07;154800.31;5019161;28;20581;-88
2022/11/07 12:27:22;;;;;;;2.80;1.07;;;;;;;13.46;94.42;154817.16;5035054;28;20427;-88
2022/11/07 12:30:15;;;;;;;2.70;1.30;;;;;;;13.60;92.44;154853.50;5035527;28;20428;-88
2022/11/07 12:33:11;;;;;;;2.03;1.50;;;;;;;13.51;96.45;154828.81;5034297;28;20455;-88
2022/11/07 12:36:01;;;;;;;3.63;1.60;;;;;;;13.51;93.02;154830.13;5034098;28;20486;-88
2022/11/07 12:39:06;;;;;;;3.10;1.30;;;;;;;13.72;91.32;154883.34;5033206;28;20549;-88
2022/11/07 12:41:56;;;;;;;3.67;1.47;;;;;;;13.60;90.61;154853.50;5033792;28;20489;-88
2022/11/07 12:44:51;;;;;;;2.93;1.10;;;;;;;13.67;92.79;154871.66;5034881;28;20431;-88
2022/11/07 12:47:54;;;;;;;1.60;1.07;;;;;;;13.58;90.30;154847.03;5034894;28;20506;-88
2022/11/07 12:50:41;;;;;;;1.97;1.00;;;;;;;13.69;89.39;154876.84;5033493;28;20439;-88
2022/11/07 12:53:33;;;;;;;2.50;1.10;;;;;;;13.71;89.19;154882.06;5027414;28;20448;-88
2022/11/07 12:56:22;;;;;;;2.97;1.30;;;;;;;13.65;90.19;154865.19;5034308;28;20474;-88
2022/11/07 12:59:21;;;;;;;3.03;1.50;;;;;;;13.58;88.97;154847.03;5033817;28;20910;-87
2022/11/07 13:02:09;;;;;;;3.30;1.30;;;;;;;13.58;90.42;154847.03;5015199;28;20480;-88
2022/11/07 13:05:00;;;;;;;2.40;1.30;;;;;;;13.65;88.60;154865.19;5030258;28;20427;-88
2022/11/07 13:07:50;;;;;;;1.20;0.73;;;;;;;13.69;88.29;154876.84;5033787;28;20832;-88